首页
METAR-TAF:

METAR-TAF

机场 :

布萊茲諾頓皇家空軍基地

Brize Norton, 英格兰

纬度: 51-45N, 经度: 001-35W, 海拔: 88米

当前天气观测

该预报发布于32分钟前的05:50 UTC
风速1节,风向
温度 -2°C
湿度 93%
气压 1016 hPa
能見度: 3000
少量云层高于100英尺
多云层高于24000英尺
轻雾

METAR: EGVN 190550Z 08001KT 3000 BR FEW001 BKN240 M02/M03 Q1016 TEMPO 0500 FZFG VV/// RMK YLO1 TEMPO RED

时间: 06:22 (06:22 UTC)

预报

该预报发布于1小时和50分钟前的04:32 UTC
预报有效从19日的 06点(UTC)到 20日的 06点(UTC)
风速3节,风向南转南东
能見度: 5000
散云层高于2500英尺
轻雾
几率 40%
从 19日的 06点(UTC)到 19日的 10点(UTC)
能見度: 0300
冻雾
成为
从 19日的 09点(UTC)到 19日的 12点(UTC)
能见度10公里或以上
几率 30%
从 19日的 19点(UTC)到 20日的 03点(UTC)
能見度: 6000

TAF: EGVN 190432Z 1906/2006 15003KT 5000 BR SCT025 PROB40 1906/1910 0300 FZFG VV/// BECMG 1909/1912 9999 NSW PROB30 1919/2003 6000 HZ

超过4000个机场的气象观测和天气预报(METAR&TAF报告)。

可查询的气象台以黄色和红色小点在地图上表示。

将鼠标移到小点上方,可查看气象台名称。

然后点击查看天气观测和预报。

如需切换地图:点击带黑十字的绿色按钮放大地图;点击带横线的绿色按钮缩小地图;或者点击绿色箭头查看邻近地区的地图。


METAR-TAF: